sensor_id;sensor_type;location;lat;lon;timestamp;P1;durP1;ratioP1;P2;durP2;ratioP2
66946;SDS011;53853;51.982;5.928;2022-11-20T00:02:04;16.48;;;10.68;;
66946;SDS011;53853;51.982;5.928;2022-11-20T00:04:34;13.40;;;11.05;;
66946;SDS011;53853;51.982;5.928;2022-11-20T00:07:03;14.40;;;10.23;;
66946;SDS011;53853;51.982;5.928;2022-11-20T00:09:36;16.92;;;11.15;;
66946;SDS011;53853;51.982;5.928;2022-11-20T00:12:06;17.27;;;11.90;;
66946;SDS011;53853;51.982;5.928;2022-11-20T00:14:36;16.10;;;10.82;;
66946;SDS011;53853;51.982;5.928;2022-11-20T00:17:06;14.60;;;11.02;;
66946;SDS011;53853;51.982;5.928;2022-11-20T00:19:36;17.15;;;10.45;;
66946;SDS011;53853;51.982;5.928;2022-11-20T00:22:06;14.88;;;10.82;;
66946;SDS011;53853;51.982;5.928;2022-11-20T00:24:39;16.98;;;11.63;;
66946;SDS011;53853;51.982;5.928;2022-11-20T00:27:08;18.33;;;12.20;;
66946;SDS011;53853;51.982;5.928;2022-11-20T00:29:39;14.95;;;11.15;;
66946;SDS011;53853;51.982;5.928;2022-11-20T00:32:08;16.45;;;11.35;;
66946;SDS011;53853;51.982;5.928;2022-11-20T00:34:38;15.98;;;11.60;;
66946;SDS011;53853;51.982;5.928;2022-11-20T00:37:08;17.90;;;10.90;;
66946;SDS011;53853;51.982;5.928;2022-11-20T00:39:41;17.42;;;11.68;;
66946;SDS011;53853;51.982;5.928;2022-11-20T00:42:10;14.07;;;11.07;;
66946;SDS011;53853;51.982;5.928;2022-11-20T00:44:40;18.20;;;12.52;;
66946;SDS011;53853;51.982;5.928;2022-11-20T00:47:10;15.25;;;10.75;;
66946;SDS011;53853;51.982;5.928;2022-11-20T00:49:40;13.00;;;9.80;;
66946;SDS011;53853;51.982;5.928;2022-11-20T00:52:10;17.67;;;11.90;;
66946;SDS011;53853;51.982;5.928;2022-11-20T00:54:42;15.27;;;10.18;;
66946;SDS011;53853;51.982;5.928;2022-11-20T00:57:12;13.25;;;9.85;;
66946;SDS011;53853;51.982;5.928;2022-11-20T00:59:42;14.50;;;10.27;;
66946;SDS011;53853;51.982;5.928;2022-11-20T01:02:12;13.95;;;10.05;;
66946;SDS011;53853;51.982;5.928;2022-11-20T01:04:42;14.60;;;9.23;;
66946;SDS011;53853;51.982;5.928;2022-11-20T01:07:11;14.77;;;9.80;;
66946;SDS011;53853;51.982;5.928;2022-11-20T01:09:44;14.13;;;10.40;;
66946;SDS011;53853;51.982;5.928;2022-11-20T01:12:14;14.98;;;10.30;;
66946;SDS011;53853;51.982;5.928;2022-11-20T01:14:44;14.10;;;9.75;;
66946;SDS011;53853;51.982;5.928;2022-11-20T01:17:15;14.23;;;10.52;;
66946;SDS011;53853;51.982;5.928;2022-11-20T01:19:46;12.32;;;9.18;;
66946;SDS011;53853;51.982;5.928;2022-11-20T01:22:18;12.80;;;9.60;;
66946;SDS011;53853;51.982;5.928;2022-11-20T01:24:50;12.70;;;9.15;;
66946;SDS011;53853;51.982;5.928;2022-11-20T01:27:20;14.13;;;9.43;;
66946;SDS011;53853;51.982;5.928;2022-11-20T01:29:50;13.57;;;9.70;;
66946;SDS011;53853;51.982;5.928;2022-11-20T01:32:19;14.05;;;10.20;;
66946;SDS011;53853;51.982;5.928;2022-11-20T01:34:49;13.70;;;9.27;;
66946;SDS011;53853;51.982;5.928;2022-11-20T01:37:19;13.45;;;9.77;;
66946;SDS011;53853;51.982;5.928;2022-11-20T01:39:52;15.40;;;10.75;;
66946;SDS011;53853;51.982;5.928;2022-11-20T01:42:21;13.82;;;10.13;;
66946;SDS011;53853;51.982;5.928;2022-11-20T01:48:03;13.50;;;9.63;;
66946;SDS011;53853;51.982;5.928;2022-11-20T01:50:34;13.20;;;9.50;;
66946;SDS011;53853;51.982;5.928;2022-11-20T01:53:05;14.63;;;9.52;;
66946;SDS011;53853;51.982;5.928;2022-11-20T01:55:39;14.18;;;10.13;;
66946;SDS011;53853;51.982;5.928;2022-11-20T01:58:14;11.90;;;9.30;;
66946;SDS011;53853;51.982;5.928;2022-11-20T02:00:45;14.98;;;10.80;;
66946;SDS011;53853;51.982;5.928;2022-11-20T02:03:15;14.80;;;10.27;;
66946;SDS011;53853;51.982;5.928;2022-11-20T02:05:49;15.02;;;10.93;;
66946;SDS011;53853;51.982;5.928;2022-11-20T02:08:23;13.25;;;9.25;;
66946;SDS011;53853;51.982;5.928;2022-11-20T02:10:56;14.40;;;10.00;;
66946;SDS011;53853;51.982;5.928;2022-11-20T02:13:26;13.57;;;9.50;;
66946;SDS011;53853;51.982;5.928;2022-11-20T02:16:09;13.60;;;9.48;;
66946;SDS011;53853;51.982;5.928;2022-11-20T02:18:44;13.95;;;9.30;;
66946;SDS011;53853;51.982;5.928;2022-11-20T02:21:18;14.57;;;9.75;;
66946;SDS011;53853;51.982;5.928;2022-11-20T02:24:05;14.02;;;9.75;;
66946;SDS011;53853;51.982;5.928;2022-11-20T02:26:39;15.10;;;9.80;;
66946;SDS011;53853;51.982;5.928;2022-11-20T02:29:13;15.25;;;10.35;;
66946;SDS011;53853;51.982;5.928;2022-11-20T02:31:45;12.13;;;9.25;;
66946;SDS011;53853;51.982;5.928;2022-11-20T02:34:15;14.90;;;10.57;;
66946;SDS011;53853;51.982;5.928;2022-11-20T02:36:45;17.42;;;11.38;;
66946;SDS011;53853;51.982;5.928;2022-11-20T02:39:20;12.40;;;10.02;;
66946;SDS011;53853;51.982;5.928;2022-11-20T02:41:53;11.60;;;8.57;;
66946;SDS011;53853;51.982;5.928;2022-11-20T02:44:25;14.88;;;9.50;;
66946;SDS011;53853;51.982;5.928;2022-11-20T02:46:56;12.27;;;9.35;;
66946;SDS011;53853;51.982;5.928;2022-11-20T02:49:26;13.20;;;9.65;;
66946;SDS011;53853;51.982;5.928;2022-11-20T02:51:56;14.32;;;10.50;;
66946;SDS011;53853;51.982;5.928;2022-11-20T02:54:28;12.88;;;9.43;;
66946;SDS011;53853;51.982;5.928;2022-11-20T02:56:58;11.85;;;9.43;;
66946;SDS011;53853;51.982;5.928;2022-11-20T02:59:28;13.30;;;10.23;;
66946;SDS011;53853;51.982;5.928;2022-11-20T03:01:58;14.02;;;9.88;;
66946;SDS011;53853;51.982;5.928;2022-11-20T03:04:28;12.68;;;9.68;;
66946;SDS011;53853;51.982;5.928;2022-11-20T03:06:58;14.45;;;10.43;;
66946;SDS011;53853;51.982;5.928;2022-11-20T03:09:30;14.00;;;10.90;;
66946;SDS011;53853;51.982;5.928;2022-11-20T03:12:00;14.65;;;9.93;;
66946;SDS011;53853;51.982;5.928;2022-11-20T03:14:30;14.70;;;9.77;;
66946;SDS011;53853;51.982;5.928;2022-11-20T03:17:00;13.18;;;9.85;;
66946;SDS011;53853;51.982;5.928;2022-11-20T03:19:30;14.60;;;10.10;;
66946;SDS011;53853;51.982;5.928;2022-11-20T03:21:59;13.98;;;10.02;;
66946;SDS011;53853;51.982;5.928;2022-11-20T03:24:32;15.30;;;11.38;;
66946;SDS011;53853;51.982;5.928;2022-11-20T03:27:02;16.27;;;10.38;;
66946;SDS011;53853;51.982;5.928;2022-11-20T03:29:32;14.77;;;10.98;;
66946;SDS011;53853;51.982;5.928;2022-11-20T03:32:03;13.45;;;9.70;;
66946;SDS011;53853;51.982;5.928;2022-11-20T03:34:33;13.10;;;9.55;;
66946;SDS011;53853;51.982;5.928;2022-11-20T03:37:03;12.05;;;8.68;;
66946;SDS011;53853;51.982;5.928;2022-11-20T03:39:35;13.55;;;9.82;;
66946;SDS011;53853;51.982;5.928;2022-11-20T03:42:05;16.20;;;11.35;;
66946;SDS011;53853;51.982;5.928;2022-11-20T03:44:56;13.18;;;9.77;;
66946;SDS011;53853;51.982;5.928;2022-11-20T03:47:26;13.30;;;10.30;;
66946;SDS011;53853;51.982;5.928;2022-11-20T03:49:56;14.60;;;10.00;;
66946;SDS011;53853;51.982;5.928;2022-11-20T03:52:26;14.65;;;10.93;;
66946;SDS011;53853;51.982;5.928;2022-11-20T03:54:58;16.70;;;11.30;;
66946;SDS011;53853;51.982;5.928;2022-11-20T03:57:28;16.48;;;11.60;;
66946;SDS011;53853;51.982;5.928;2022-11-20T03:59:58;14.35;;;9.75;;
66946;SDS011;53853;51.982;5.928;2022-11-20T04:02:30;13.90;;;9.88;;
66946;SDS011;53853;51.982;5.928;2022-11-20T04:05:00;17.13;;;11.55;;
66946;SDS011;53853;51.982;5.928;2022-11-20T04:07:30;13.25;;;10.35;;
66946;SDS011;53853;51.982;5.928;2022-11-20T04:10:05;16.20;;;12.00;;
66946;SDS011;53853;51.982;5.928;2022-11-20T04:12:35;13.05;;;9.25;;
66946;SDS011;53853;51.982;5.928;2022-11-20T04:15:05;14.48;;;10.55;;
66946;SDS011;53853;51.982;5.928;2022-11-20T04:17:35;15.20;;;9.93;;
66946;SDS011;53853;51.982;5.928;2022-11-20T04:20:06;14.32;;;9.75;;
66946;SDS011;53853;51.982;5.928;2022-11-20T04:22:37;14.32;;;10.52;;
66946;SDS011;53853;51.982;5.928;2022-11-20T04:25:09;13.43;;;10.52;;
66946;SDS011;53853;51.982;5.928;2022-11-20T04:27:39;14.38;;;10.90;;
66946;SDS011;53853;51.982;5.928;2022-11-20T04:30:10;14.10;;;10.15;;
66946;SDS011;53853;51.982;5.928;2022-11-20T04:32:40;15.95;;;10.75;;
66946;SDS011;53853;51.982;5.928;2022-11-20T04:35:10;18.90;;;12.50;;
66946;SDS011;53853;51.982;5.928;2022-11-20T04:37:40;18.40;;;11.85;;
66946;SDS011;53853;51.982;5.928;2022-11-20T04:42:45;16.58;;;11.55;;
66946;SDS011;53853;51.982;5.928;2022-11-20T04:45:15;18.23;;;12.52;;
66946;SDS011;53853;51.982;5.928;2022-11-20T04:47:44;21.80;;;13.75;;
66946;SDS011;53853;51.982;5.928;2022-11-20T04:50:14;18.08;;;12.75;;
66946;SDS011;53853;51.982;5.928;2022-11-20T04:52:44;15.55;;;11.38;;
66946;SDS011;53853;51.982;5.928;2022-11-20T04:55:17;19.60;;;12.05;;
66946;SDS011;53853;51.982;5.928;2022-11-20T04:57:49;21.55;;;12.60;;
66946;SDS011;53853;51.982;5.928;2022-11-20T05:00:19;18.88;;;12.90;;
66946;SDS011;53853;51.982;5.928;2022-11-20T05:02:49;19.33;;;11.63;;
66946;SDS011;53853;51.982;5.928;2022-11-20T05:05:19;22.92;;;13.60;;
66946;SDS011;53853;51.982;5.928;2022-11-20T05:07:49;19.25;;;12.88;;
66946;SDS011;53853;51.982;5.928;2022-11-20T05:10:21;14.50;;;11.00;;
66946;SDS011;53853;51.982;5.928;2022-11-20T05:12:51;15.68;;;11.27;;
66946;SDS011;53853;51.982;5.928;2022-11-20T05:15:21;18.67;;;12.07;;
66946;SDS011;53853;51.982;5.928;2022-11-20T05:17:51;16.83;;;11.75;;
66946;SDS011;53853;51.982;5.928;2022-11-20T05:20:21;15.65;;;12.25;;
66946;SDS011;53853;51.982;5.928;2022-11-20T05:22:51;14.93;;;11.23;;
66946;SDS011;53853;51.982;5.928;2022-11-20T05:25:27;17.63;;;12.10;;
66946;SDS011;53853;51.982;5.928;2022-11-20T05:27:57;14.27;;;10.80;;
66946;SDS011;53853;51.982;5.928;2022-11-20T05:30:27;15.63;;;11.82;;
66946;SDS011;53853;51.982;5.928;2022-11-20T05:32:56;15.93;;;11.48;;
66946;SDS011;53853;51.982;5.928;2022-11-20T05:35:26;16.05;;;11.05;;
66946;SDS011;53853;51.982;5.928;2022-11-20T05:37:56;16.90;;;12.05;;
66946;SDS011;53853;51.982;5.928;2022-11-20T05:40:29;15.18;;;11.43;;
66946;SDS011;53853;51.982;5.928;2022-11-20T05:42:59;15.57;;;10.95;;
66946;SDS011;53853;51.982;5.928;2022-11-20T05:45:29;14.38;;;10.50;;
66946;SDS011;53853;51.982;5.928;2022-11-20T05:47:59;15.57;;;10.32;;
66946;SDS011;53853;51.982;5.928;2022-11-20T05:50:29;16.85;;;11.75;;
66946;SDS011;53853;51.982;5.928;2022-11-20T05:52:59;16.20;;;12.13;;
66946;SDS011;53853;51.982;5.928;2022-11-20T05:55:32;15.85;;;10.63;;
66946;SDS011;53853;51.982;5.928;2022-11-20T05:58:02;16.50;;;10.63;;
66946;SDS011;53853;51.982;5.928;2022-11-20T06:00:31;16.77;;;11.70;;
66946;SDS011;53853;51.982;5.928;2022-11-20T06:03:01;15.60;;;11.32;;
66946;SDS011;53853;51.982;5.928;2022-11-20T06:05:33;15.52;;;10.52;;
66946;SDS011;53853;51.982;5.928;2022-11-20T06:08:03;17.42;;;11.70;;
66946;SDS011;53853;51.982;5.928;2022-11-20T06:10:35;18.02;;;11.60;;
66946;SDS011;53853;51.982;5.928;2022-11-20T06:13:05;13.95;;;10.45;;
66946;SDS011;53853;51.982;5.928;2022-11-20T06:15:35;17.02;;;10.23;;
66946;SDS011;53853;51.982;5.928;2022-11-20T06:18:05;16.52;;;10.85;;
66946;SDS011;53853;51.982;5.928;2022-11-20T06:20:35;13.75;;;10.32;;
66946;SDS011;53853;51.982;5.928;2022-11-20T06:23:04;14.05;;;9.93;;
66946;SDS011;53853;51.982;5.928;2022-11-20T06:25:39;13.40;;;9.57;;
66946;SDS011;53853;51.982;5.928;2022-11-20T06:28:10;15.05;;;10.57;;
66946;SDS011;53853;51.982;5.928;2022-11-20T06:30:44;17.20;;;11.68;;
66946;SDS011;53853;51.982;5.928;2022-11-20T06:35:43;15.15;;;10.45;;
66946;SDS011;53853;51.982;5.928;2022-11-20T06:38:13;14.52;;;10.43;;
66946;SDS011;53853;51.982;5.928;2022-11-20T06:40:46;13.80;;;10.10;;
66946;SDS011;53853;51.982;5.928;2022-11-20T06:43:16;14.77;;;10.32;;
66946;SDS011;53853;51.982;5.928;2022-11-20T06:45:45;14.57;;;10.57;;
66946;SDS011;53853;51.982;5.928;2022-11-20T06:48:19;15.35;;;10.50;;
66946;SDS011;53853;51.982;5.928;2022-11-20T06:50:49;16.35;;;10.85;;
66946;SDS011;53853;51.982;5.928;2022-11-20T06:53:19;15.10;;;10.13;;
66946;SDS011;53853;51.982;5.928;2022-11-20T06:55:55;14.57;;;10.27;;
66946;SDS011;53853;51.982;5.928;2022-11-20T06:58:26;15.75;;;11.43;;
66946;SDS011;53853;51.982;5.928;2022-11-20T07:00:57;16.25;;;11.90;;
66946;SDS011;53853;51.982;5.928;2022-11-20T07:03:27;16.35;;;11.57;;
66946;SDS011;53853;51.982;5.928;2022-11-20T07:05:58;21.88;;;13.57;;
66946;SDS011;53853;51.982;5.928;2022-11-20T07:08:29;21.80;;;14.15;;
66946;SDS011;53853;51.982;5.928;2022-11-20T07:11:02;21.02;;;14.15;;
66946;SDS011;53853;51.982;5.928;2022-11-20T07:16:04;17.48;;;12.38;;
66946;SDS011;53853;51.982;5.928;2022-11-20T07:18:36;19.00;;;13.48;;
66946;SDS011;53853;51.982;5.928;2022-11-20T07:21:06;20.17;;;13.77;;
66946;SDS011;53853;51.982;5.928;2022-11-20T07:23:38;19.20;;;13.15;;
66946;SDS011;53853;51.982;5.928;2022-11-20T07:26:10;18.75;;;13.00;;
66946;SDS011;53853;51.982;5.928;2022-11-20T07:28:43;20.70;;;13.43;;
66946;SDS011;53853;51.982;5.928;2022-11-20T07:31:13;19.35;;;13.43;;
66946;SDS011;53853;51.982;5.928;2022-11-20T07:33:43;16.70;;;13.05;;
66946;SDS011;53853;51.982;5.928;2022-11-20T07:36:13;18.92;;;13.43;;
66946;SDS011;53853;51.982;5.928;2022-11-20T07:38:43;19.67;;;12.90;;
66946;SDS011;53853;51.982;5.928;2022-11-20T07:41:15;17.42;;;13.07;;
66946;SDS011;53853;51.982;5.928;2022-11-20T07:43:45;20.13;;;13.57;;
66946;SDS011;53853;51.982;5.928;2022-11-20T07:46:15;20.15;;;15.15;;
66946;SDS011;53853;51.982;5.928;2022-11-20T07:48:45;20.88;;;14.75;;
66946;SDS011;53853;51.982;5.928;2022-11-20T07:51:14;19.35;;;12.77;;
66946;SDS011;53853;51.982;5.928;2022-11-20T07:53:44;18.52;;;12.75;;
66946;SDS011;53853;51.982;5.928;2022-11-20T07:56:17;19.40;;;13.25;;
66946;SDS011;53853;51.982;5.928;2022-11-20T07:58:47;20.50;;;13.00;;
66946;SDS011;53853;51.982;5.928;2022-11-20T08:01:16;22.90;;;13.57;;
66946;SDS011;53853;51.982;5.928;2022-11-20T08:03:46;18.90;;;14.00;;
66946;SDS011;53853;51.982;5.928;2022-11-20T08:06:16;19.55;;;14.25;;
66946;SDS011;53853;51.982;5.928;2022-11-20T08:08:47;19.88;;;13.50;;
66946;SDS011;53853;51.982;5.928;2022-11-20T08:11:19;20.67;;;14.40;;
66946;SDS011;53853;51.982;5.928;2022-11-20T08:14:01;20.17;;;13.48;;
66946;SDS011;53853;51.982;5.928;2022-11-20T08:16:40;18.98;;;12.30;;
66946;SDS011;53853;51.982;5.928;2022-11-20T08:19:11;18.70;;;13.70;;
66946;SDS011;53853;51.982;5.928;2022-11-20T08:21:41;17.98;;;13.27;;
66946;SDS011;53853;51.982;5.928;2022-11-20T08:24:11;20.13;;;13.13;;
66946;SDS011;53853;51.982;5.928;2022-11-20T08:26:43;17.60;;;13.05;;
66946;SDS011;53853;51.982;5.928;2022-11-20T08:29:13;19.90;;;13.93;;
66946;SDS011;53853;51.982;5.928;2022-11-20T08:31:43;20.98;;;14.32;;
66946;SDS011;53853;51.982;5.928;2022-11-20T08:34:13;20.63;;;13.57;;
66946;SDS011;53853;51.982;5.928;2022-11-20T08:36:43;19.90;;;14.85;;
66946;SDS011;53853;51.982;5.928;2022-11-20T08:39:13;21.42;;;14.30;;
66946;SDS011;53853;51.982;5.928;2022-11-20T08:41:48;20.05;;;14.20;;
66946;SDS011;53853;51.982;5.928;2022-11-20T08:44:23;21.67;;;14.80;;
66946;SDS011;53853;51.982;5.928;2022-11-20T08:46:56;18.77;;;14.07;;
66946;SDS011;53853;51.982;5.928;2022-11-20T08:49:26;21.35;;;14.77;;
66946;SDS011;53853;51.982;5.928;2022-11-20T08:51:56;22.73;;;14.30;;
66946;SDS011;53853;51.982;5.928;2022-11-20T08:54:26;21.38;;;15.80;;
66946;SDS011;53853;51.982;5.928;2022-11-20T08:56:59;20.23;;;13.90;;
66946;SDS011;53853;51.982;5.928;2022-11-20T08:59:32;19.55;;;13.40;;
66946;SDS011;53853;51.982;5.928;2022-11-20T09:02:02;19.88;;;14.65;;
66946;SDS011;53853;51.982;5.928;2022-11-20T09:04:32;21.17;;;14.57;;
66946;SDS011;53853;51.982;5.928;2022-11-20T09:07:02;22.67;;;15.18;;
66946;SDS011;53853;51.982;5.928;2022-11-20T09:09:31;24.45;;;16.48;;
66946;SDS011;53853;51.982;5.928;2022-11-20T09:12:04;20.48;;;15.30;;
66946;SDS011;53853;51.982;5.928;2022-11-20T09:14:34;21.92;;;15.50;;
66946;SDS011;53853;51.982;5.928;2022-11-20T09:17:04;23.60;;;16.70;;
66946;SDS011;53853;51.982;5.928;2022-11-20T09:19:34;19.35;;;14.43;;
66946;SDS011;53853;51.982;5.928;2022-11-20T09:22:04;19.73;;;13.32;;
66946;SDS011;53853;51.982;5.928;2022-11-20T09:24:33;20.20;;;14.32;;
66946;SDS011;53853;51.982;5.928;2022-11-20T09:27:06;17.67;;;14.02;;
66946;SDS011;53853;51.982;5.928;2022-11-20T09:29:36;20.73;;;15.68;;
66946;SDS011;53853;51.982;5.928;2022-11-20T09:32:06;20.88;;;15.38;;
66946;SDS011;53853;51.982;5.928;2022-11-20T09:34:36;19.17;;;14.82;;
66946;SDS011;53853;51.982;5.928;2022-11-20T09:37:06;19.25;;;14.43;;
66946;SDS011;53853;51.982;5.928;2022-11-20T09:39:36;19.88;;;14.32;;
66946;SDS011;53853;51.982;5.928;2022-11-20T09:42:14;20.67;;;15.75;;
66946;SDS011;53853;51.982;5.928;2022-11-20T09:44:57;19.50;;;14.18;;
66946;SDS011;53853;51.982;5.928;2022-11-20T09:47:49;19.13;;;14.18;;
66946;SDS011;53853;51.982;5.928;2022-11-20T09:50:31;21.02;;;14.75;;
66946;SDS011;53853;51.982;5.928;2022-11-20T09:53:10;19.17;;;14.75;;
66946;SDS011;53853;51.982;5.928;2022-11-20T09:55:43;19.80;;;14.55;;
66946;SDS011;53853;51.982;5.928;2022-11-20T09:58:19;21.88;;;16.90;;
66946;SDS011;53853;51.982;5.928;2022-11-20T10:00:56;20.20;;;14.65;;
66946;SDS011;53853;51.982;5.928;2022-11-20T10:03:36;20.20;;;15.35;;
66946;SDS011;53853;51.982;5.928;2022-11-20T10:06:12;20.40;;;14.98;;
66946;SDS011;53853;51.982;5.928;2022-11-20T10:08:47;20.20;;;15.73;;
66946;SDS011;53853;51.982;5.928;2022-11-20T10:11:28;19.30;;;14.73;;
66946;SDS011;53853;51.982;5.928;2022-11-20T10:14:08;22.15;;;15.60;;
66946;SDS011;53853;51.982;5.928;2022-11-20T10:16:58;28.83;;;18.45;;
66946;SDS011;53853;51.982;5.928;2022-11-20T10:19:40;25.30;;;17.23;;
66946;SDS011;53853;51.982;5.928;2022-11-20T10:22:26;22.92;;;15.75;;
66946;SDS011;53853;51.982;5.928;2022-11-20T10:25:05;24.60;;;16.55;;
66946;SDS011;53853;51.982;5.928;2022-11-20T10:27:49;23.58;;;17.15;;
66946;SDS011;53853;51.982;5.928;2022-11-20T10:30:28;22.92;;;16.73;;
66946;SDS011;53853;51.982;5.928;2022-11-20T10:33:00;20.73;;;15.82;;
66946;SDS011;53853;51.982;5.928;2022-11-20T10:35:39;22.15;;;16.77;;
66946;SDS011;53853;51.982;5.928;2022-11-20T10:38:12;23.27;;;15.77;;
66946;SDS011;53853;51.982;5.928;2022-11-20T10:40:49;26.00;;;17.55;;
66946;SDS011;53853;51.982;5.928;2022-11-20T10:43:42;24.48;;;17.00;;
66946;SDS011;53853;51.982;5.928;2022-11-20T10:46:23;22.35;;;16.45;;
66946;SDS011;53853;51.982;5.928;2022-11-20T10:48:54;22.27;;;16.13;;
66946;SDS011;53853;51.982;5.928;2022-11-20T10:51:30;20.73;;;15.85;;
66946;SDS011;53853;51.982;5.928;2022-11-20T10:54:09;26.27;;;17.20;;
66946;SDS011;53853;51.982;5.928;2022-11-20T10:56:50;27.65;;;19.42;;
66946;SDS011;53853;51.982;5.928;2022-11-20T11:02:22;23.40;;;15.77;;
66946;SDS011;53853;51.982;5.928;2022-11-20T11:05:04;22.13;;;15.90;;
66946;SDS011;53853;51.982;5.928;2022-11-20T11:07:50;20.35;;;15.77;;
66946;SDS011;53853;51.982;5.928;2022-11-20T11:10:24;36.78;;;24.90;;
66946;SDS011;53853;51.982;5.928;2022-11-20T11:13:00;34.85;;;24.38;;
66946;SDS011;53853;51.982;5.928;2022-11-20T11:15:37;32.15;;;19.83;;
66946;SDS011;53853;51.982;5.928;2022-11-20T11:18:11;28.77;;;20.58;;
66946;SDS011;53853;51.982;5.928;2022-11-20T11:20:51;26.25;;;17.75;;
66946;SDS011;53853;51.982;5.928;2022-11-20T11:23:28;23.75;;;17.27;;
66946;SDS011;53853;51.982;5.928;2022-11-20T11:26:01;23.38;;;16.38;;
66946;SDS011;53853;51.982;5.928;2022-11-20T11:28:33;24.83;;;17.42;;
66946;SDS011;53853;51.982;5.928;2022-11-20T11:31:03;21.67;;;16.20;;
66946;SDS011;53853;51.982;5.928;2022-11-20T11:33:35;22.63;;;16.35;;
66946;SDS011;53853;51.982;5.928;2022-11-20T11:36:16;24.23;;;17.40;;
66946;SDS011;53853;51.982;5.928;2022-11-20T11:38:51;19.60;;;15.35;;
66946;SDS011;53853;51.982;5.928;2022-11-20T11:41:22;22.40;;;16.63;;
66946;SDS011;53853;51.982;5.928;2022-11-20T11:44:00;21.80;;;17.10;;
66946;SDS011;53853;51.982;5.928;2022-11-20T11:47:00;20.00;;;14.85;;
66946;SDS011;53853;51.982;5.928;2022-11-20T11:49:37;20.48;;;15.65;;
66946;SDS011;53853;51.982;5.928;2022-11-20T11:52:08;20.65;;;16.75;;
66946;SDS011;53853;51.982;5.928;2022-11-20T11:54:42;21.58;;;16.08;;
66946;SDS011;53853;51.982;5.928;2022-11-20T11:57:17;19.10;;;14.60;;
66946;SDS011;53853;51.982;5.928;2022-11-20T11:59:57;23.73;;;17.08;;
66946;SDS011;53853;51.982;5.928;2022-11-20T12:02:33;21.67;;;16.65;;
66946;SDS011;53853;51.982;5.928;2022-11-20T12:05:16;23.40;;;17.13;;
66946;SDS011;53853;51.982;5.928;2022-11-20T12:07:49;22.15;;;17.25;;
66946;SDS011;53853;51.982;5.928;2022-11-20T12:12:58;21.75;;;15.30;;
66946;SDS011;53853;51.982;5.928;2022-11-20T12:15:33;22.75;;;17.20;;
66946;SDS011;53853;51.982;5.928;2022-11-20T12:18:04;21.25;;;17.15;;
66946;SDS011;53853;51.982;5.928;2022-11-20T12:20:45;22.20;;;17.25;;
66946;SDS011;53853;51.982;5.928;2022-11-20T12:23:27;22.88;;;16.92;;
66946;SDS011;53853;51.982;5.928;2022-11-20T12:26:04;19.90;;;16.05;;
66946;SDS011;53853;51.982;5.928;2022-11-20T12:28:44;21.67;;;16.48;;
66946;SDS011;53853;51.982;5.928;2022-11-20T12:34:19;19.40;;;15.90;;
66946;SDS011;53853;51.982;5.928;2022-11-20T12:37:04;20.95;;;14.73;;
66946;SDS011;53853;51.982;5.928;2022-11-20T12:39:43;18.00;;;14.05;;
66946;SDS011;53853;51.982;5.928;2022-11-20T12:42:20;18.08;;;15.18;;
66946;SDS011;53853;51.982;5.928;2022-11-20T12:45:20;23.38;;;16.25;;
66946;SDS011;53853;51.982;5.928;2022-11-20T12:48:03;17.15;;;13.82;;
66946;SDS011;53853;51.982;5.928;2022-11-20T12:50:59;24.88;;;17.75;;
66946;SDS011;53853;51.982;5.928;2022-11-20T12:53:48;19.73;;;16.20;;
66946;SDS011;53853;51.982;5.928;2022-11-20T12:56:29;19.90;;;15.70;;
66946;SDS011;53853;51.982;5.928;2022-11-20T12:59:13;19.05;;;15.55;;
66946;SDS011;53853;51.982;5.928;2022-11-20T13:01:53;20.52;;;15.85;;
66946;SDS011;53853;51.982;5.928;2022-11-20T13:04:37;20.88;;;15.60;;
66946;SDS011;53853;51.982;5.928;2022-11-20T13:07:21;17.93;;;15.40;;
66946;SDS011;53853;51.982;5.928;2022-11-20T13:09:55;18.92;;;15.05;;
66946;SDS011;53853;51.982;5.928;2022-11-20T13:12:29;18.50;;;15.02;;
66946;SDS011;53853;51.982;5.928;2022-11-20T13:15:05;18.50;;;15.27;;
66946;SDS011;53853;51.982;5.928;2022-11-20T13:17:46;18.55;;;13.95;;
66946;SDS011;53853;51.982;5.928;2022-11-20T13:20:20;19.05;;;15.45;;
66946;SDS011;53853;51.982;5.928;2022-11-20T13:22:50;20.63;;;16.10;;
66946;SDS011;53853;51.982;5.928;2022-11-20T13:25:26;21.63;;;15.48;;
66946;SDS011;53853;51.982;5.928;2022-11-20T13:27:58;25.85;;;16.98;;
66946;SDS011;53853;51.982;5.928;2022-11-20T13:30:30;22.80;;;17.13;;
66946;SDS011;53853;51.982;5.928;2022-11-20T13:33:03;24.42;;;17.98;;
66946;SDS011;53853;51.982;5.928;2022-11-20T13:35:37;26.27;;;18.77;;
66946;SDS011;53853;51.982;5.928;2022-11-20T13:38:09;20.23;;;16.08;;
66946;SDS011;53853;51.982;5.928;2022-11-20T13:40:53;21.98;;;17.02;;
66946;SDS011;53853;51.982;5.928;2022-11-20T13:43:32;24.55;;;18.02;;
66946;SDS011;53853;51.982;5.928;2022-11-20T13:46:06;23.52;;;16.63;;
66946;SDS011;53853;51.982;5.928;2022-11-20T13:48:38;22.75;;;16.25;;
66946;SDS011;53853;51.982;5.928;2022-11-20T13:51:12;23.00;;;18.25;;
66946;SDS011;53853;51.982;5.928;2022-11-20T13:56:59;23.60;;;16.60;;
66946;SDS011;53853;51.982;5.928;2022-11-20T13:59:39;24.15;;;16.58;;
66946;SDS011;53853;51.982;5.928;2022-11-20T14:02:16;24.55;;;18.60;;
66946;SDS011;53853;51.982;5.928;2022-11-20T14:04:49;25.15;;;18.55;;
66946;SDS011;53853;51.982;5.928;2022-11-20T14:07:21;24.88;;;17.67;;
66946;SDS011;53853;51.982;5.928;2022-11-20T14:09:56;26.63;;;19.45;;
66946;SDS011;53853;51.982;5.928;2022-11-20T14:12:30;25.35;;;18.38;;
66946;SDS011;53853;51.982;5.928;2022-11-20T14:15:02;24.50;;;18.90;;
66946;SDS011;53853;51.982;5.928;2022-11-20T14:17:34;23.55;;;17.52;;
66946;SDS011;53853;51.982;5.928;2022-11-20T14:20:05;26.48;;;18.90;;
66946;SDS011;53853;51.982;5.928;2022-11-20T14:22:47;24.35;;;17.73;;
66946;SDS011;53853;51.982;5.928;2022-11-20T14:25:19;25.38;;;18.75;;
66946;SDS011;53853;51.982;5.928;2022-11-20T14:27:56;27.25;;;19.92;;
66946;SDS011;53853;51.982;5.928;2022-11-20T14:30:28;25.23;;;18.17;;
66946;SDS011;53853;51.982;5.928;2022-11-20T14:33:06;27.70;;;19.77;;
66946;SDS011;53853;51.982;5.928;2022-11-20T14:35:40;22.58;;;16.92;;
66946;SDS011;53853;51.982;5.928;2022-11-20T14:38:16;27.60;;;21.33;;
66946;SDS011;53853;51.982;5.928;2022-11-20T14:40:49;26.70;;;20.05;;
66946;SDS011;53853;51.982;5.928;2022-11-20T14:43:24;27.73;;;20.65;;
66946;SDS011;53853;51.982;5.928;2022-11-20T14:45:56;24.58;;;18.23;;
66946;SDS011;53853;51.982;5.928;2022-11-20T14:48:29;25.23;;;18.88;;
66946;SDS011;53853;51.982;5.928;2022-11-20T14:51:01;26.17;;;19.63;;
66946;SDS011;53853;51.982;5.928;2022-11-20T14:53:31;23.15;;;17.10;;
66946;SDS011;53853;51.982;5.928;2022-11-20T14:56:01;25.65;;;18.95;;
66946;SDS011;53853;51.982;5.928;2022-11-20T14:58:34;24.13;;;18.33;;
66946;SDS011;53853;51.982;5.928;2022-11-20T15:01:05;24.95;;;19.30;;
66946;SDS011;53853;51.982;5.928;2022-11-20T15:03:36;23.35;;;18.85;;
66946;SDS011;53853;51.982;5.928;2022-11-20T15:06:07;25.70;;;20.20;;
66946;SDS011;53853;51.982;5.928;2022-11-20T15:08:50;24.13;;;17.70;;
66946;SDS011;53853;51.982;5.928;2022-11-20T15:11:20;25.42;;;18.40;;
66946;SDS011;53853;51.982;5.928;2022-11-20T15:13:59;26.67;;;19.40;;
66946;SDS011;53853;51.982;5.928;2022-11-20T15:16:33;27.80;;;20.20;;
66946;SDS011;53853;51.982;5.928;2022-11-20T15:19:03;28.00;;;20.42;;
66946;SDS011;53853;51.982;5.928;2022-11-20T15:21:45;28.73;;;20.30;;